createdAt,value
2017-09-19T00:00:26.775Z,1011.47
2017-09-19T00:01:26.737Z,1011.46
2017-09-19T00:02:26.702Z,1011.48
2017-09-19T00:03:26.662Z,1011.45
2017-09-19T00:04:26.628Z,1011.44
2017-09-19T00:05:26.615Z,1011.47
2017-09-19T00:06:26.554Z,1011.44
2017-09-19T00:07:26.526Z,1011.47
2017-09-19T00:08:26.480Z,1011.49
2017-09-19T00:09:26.445Z,1011.48
2017-09-19T00:10:26.424Z,1011.50
2017-09-19T00:11:26.371Z,1011.48
2017-09-19T00:12:26.362Z,1011.48
2017-09-19T00:13:26.315Z,1011.46
2017-09-19T00:14:26.266Z,1011.48
2017-09-19T00:15:26.230Z,1011.44
2017-09-19T00:16:26.190Z,1011.42
2017-09-19T00:17:26.192Z,1011.47
2017-09-19T00:18:26.125Z,1011.48
2017-09-19T00:19:26.083Z,1011.47
2017-09-19T00:20:26.055Z,1011.45
2017-09-19T00:21:26.013Z,1011.50
2017-09-19T00:22:25.969Z,1011.49
2017-09-19T00:23:25.960Z,1011.51
2017-09-19T00:24:25.899Z,1011.51
2017-09-19T00:25:25.864Z,1011.50
2017-09-19T00:26:25.823Z,1011.48
2017-09-19T00:27:25.798Z,1011.47
2017-09-19T00:28:25.753Z,1011.46
2017-09-19T00:29:25.721Z,1011.43
2017-09-19T00:30:25.688Z,1011.48
2017-09-19T00:31:25.648Z,1011.42
2017-09-19T00:32:25.606Z,1011.41
2017-09-19T00:33:25.575Z,1011.49
2017-09-19T00:34:25.539Z,1011.43
2017-09-19T00:35:25.501Z,1011.45
2017-09-19T00:36:25.473Z,1011.47
2017-09-19T00:37:25.430Z,1011.47
2017-09-19T00:38:25.395Z,1011.47
2017-09-19T00:39:25.354Z,1011.48
2017-09-19T00:40:25.334Z,1011.44
2017-09-19T00:41:25.280Z,1011.45
2017-09-19T00:42:25.242Z,1011.49
2017-09-19T00:43:25.216Z,1011.45
2017-09-19T00:44:25.172Z,1011.46
2017-09-19T00:45:25.134Z,1011.47
2017-09-19T00:46:25.101Z,1011.44
2017-09-19T00:47:25.062Z,1011.46
2017-09-19T00:48:25.041Z,1011.45
2017-09-19T00:49:25.007Z,1011.45
2017-09-19T00:50:24.954Z,1011.46
2017-09-19T00:51:24.908Z,1011.42
2017-09-19T00:52:24.874Z,1011.42
2017-09-19T00:53:24.836Z,1011.40
2017-09-19T00:54:24.798Z,1011.43
2017-09-19T00:55:24.764Z,1011.40
2017-09-19T00:56:24.729Z,1011.43
2017-09-19T00:57:24.701Z,1011.40
2017-09-19T00:58:24.651Z,1011.45
2017-09-19T00:59:24.619Z,1011.42
2017-09-19T01:00:24.602Z,1011.47
2017-09-19T01:01:24.556Z,1011.44
2017-09-19T01:02:24.507Z,1011.48
2017-09-19T01:03:24.469Z,1011.50
2017-09-19T01:04:24.436Z,1011.51
2017-09-19T01:05:24.408Z,1011.48
2017-09-19T01:06:24.360Z,1011.48
2017-09-19T01:07:24.326Z,1011.45
2017-09-19T01:08:24.290Z,1011.45
2017-09-19T01:09:24.248Z,1011.48
2017-09-19T01:10:24.212Z,1011.43
2017-09-19T01:11:24.178Z,1011.44
2017-09-19T01:12:24.143Z,1011.43
2017-09-19T01:13:24.103Z,1011.46
2017-09-19T01:14:24.066Z,1011.47
2017-09-19T01:15:24.030Z,1011.47
2017-09-19T01:16:23.996Z,1011.48
2017-09-19T01:17:23.956Z,1011.46
2017-09-19T01:18:23.927Z,1011.43
2017-09-19T01:19:23.886Z,1011.41
2017-09-19T01:20:23.843Z,1011.41
2017-09-19T01:21:23.811Z,1011.39
2017-09-19T01:22:23.771Z,1011.43
2017-09-19T01:23:23.734Z,1011.40
2017-09-19T01:24:23.699Z,1011.42
2017-09-19T01:25:23.663Z,1011.40
2017-09-19T01:26:23.625Z,1011.42
2017-09-19T01:27:23.598Z,1011.39
2017-09-19T01:28:23.552Z,1011.38
2017-09-19T01:29:23.522Z,1011.42
2017-09-19T01:30:23.481Z,1011.40
2017-09-19T01:31:23.439Z,1011.40
2017-09-19T01:32:23.402Z,1011.38
2017-09-19T01:33:23.367Z,1011.42
2017-09-19T01:34:23.327Z,1011.44
2017-09-19T01:35:23.292Z,1011.42
2017-09-19T01:36:23.256Z,1011.40
2017-09-19T01:37:23.220Z,1011.42
2017-09-19T01:38:23.186Z,1011.41
2017-09-19T01:39:23.146Z,1011.42
2017-09-19T01:40:23.130Z,1011.38
2017-09-19T01:41:23.074Z,1011.37
2017-09-19T01:42:23.038Z,1011.40
2017-09-19T01:43:23.005Z,1011.39
2017-09-19T01:44:22.962Z,1011.42
2017-09-19T01:45:22.927Z,1011.35
2017-09-19T01:46:22.888Z,1011.37
2017-09-19T01:47:22.850Z,1011.34
2017-09-19T01:48:22.816Z,1011.33
2017-09-19T01:49:22.780Z,1011.37
2017-09-19T01:50:22.739Z,1011.34
2017-09-19T01:51:22.705Z,1011.38
2017-09-19T01:52:22.669Z,1011.34
2017-09-19T01:53:22.630Z,1011.33
2017-09-19T01:54:22.592Z,1011.34
2017-09-19T01:55:22.554Z,1011.30
2017-09-19T01:56:22.521Z,1011.33
2017-09-19T01:57:22.484Z,1011.28
2017-09-19T01:58:22.443Z,1011.31
2017-09-19T01:59:22.408Z,1011.31
2017-09-19T02:00:22.381Z,1011.30
2017-09-19T02:01:22.336Z,1011.31
2017-09-19T02:02:22.297Z,1011.31
2017-09-19T02:03:22.260Z,1011.30
2017-09-19T02:04:22.232Z,1011.28
2017-09-19T02:05:22.196Z,1011.29
2017-09-19T02:06:22.150Z,1011.33
2017-09-19T02:07:22.117Z,1011.33
2017-09-19T02:08:22.076Z,1011.34
2017-09-19T02:09:22.080Z,1011.32
2017-09-19T02:10:22.002Z,1011.36
2017-09-19T02:11:21.963Z,1011.37
2017-09-19T02:12:21.928Z,1011.37
2017-09-19T02:13:21.890Z,1011.39
2017-09-19T02:14:21.860Z,1011.40
2017-09-19T02:15:21.817Z,1011.37
2017-09-19T02:16:21.779Z,1011.33
2017-09-19T02:17:21.744Z,1011.39
2017-09-19T02:18:21.703Z,1011.39
2017-09-19T02:19:21.673Z,1011.35
2017-09-19T02:20:21.630Z,1011.36
2017-09-19T02:21:21.595Z,1011.35
2017-09-19T02:22:21.568Z,1011.35
2017-09-19T02:23:21.554Z,1011.36
2017-09-19T02:24:21.490Z,1011.32
2017-09-19T02:25:21.446Z,1011.31
2017-09-19T02:26:21.409Z,1011.36
2017-09-19T02:27:21.373Z,1011.37
2017-09-19T02:28:21.335Z,1011.37
2017-09-19T02:29:21.301Z,1011.41
2017-09-19T02:30:21.260Z,1011.38
2017-09-19T02:31:21.226Z,1011.37
2017-09-19T02:32:21.188Z,1011.39
2017-09-19T02:33:21.151Z,1011.42
2017-09-19T02:34:21.113Z,1011.35
2017-09-19T02:35:21.084Z,1011.38
2017-09-19T02:36:21.048Z,1011.37
2017-09-19T02:37:21.010Z,1011.40
2017-09-19T02:38:20.967Z,1011.34
2017-09-19T02:39:20.946Z,1011.36
2017-09-19T02:40:20.901Z,1011.35
2017-09-19T02:41:20.862Z,1011.40
2017-09-19T02:42:20.811Z,1011.42
2017-09-19T02:43:20.781Z,1011.42
2017-09-19T02:44:20.751Z,1011.40
2017-09-19T02:45:20.724Z,1011.41
2017-09-19T02:46:20.670Z,1011.39
2017-09-19T02:47:20.636Z,1011.40
2017-09-19T02:48:20.598Z,1011.36
2017-09-19T02:49:20.556Z,1011.38
2017-09-19T02:50:20.554Z,1011.33
2017-09-19T02:51:20.482Z,1011.33
2017-09-19T02:52:20.460Z,1011.40
2017-09-19T02:53:20.447Z,1011.38
2017-09-19T02:54:20.412Z,1011.31
2017-09-19T02:55:20.382Z,1011.35
2017-09-19T02:56:20.308Z,1011.37
2017-09-19T02:57:20.299Z,1011.33
2017-09-19T02:58:20.277Z,1011.34
2017-09-19T02:59:20.211Z,1011.33
2017-09-19T03:00:20.157Z,1011.34
2017-09-19T03:01:20.113Z,1011.31
2017-09-19T03:02:20.080Z,1011.29
2017-09-19T03:03:20.037Z,1011.29
2017-09-19T03:04:19.999Z,1011.28
2017-09-19T03:05:19.972Z,1011.30
2017-09-19T03:06:19.930Z,1011.27
2017-09-19T03:07:19.901Z,1011.30
2017-09-19T03:08:19.853Z,1011.23
2017-09-19T03:09:19.897Z,1011.25
2017-09-19T03:10:19.782Z,1011.25
2017-09-19T03:11:19.742Z,1011.23
2017-09-19T03:12:19.727Z,1011.24
2017-09-19T03:13:19.665Z,1011.20
2017-09-19T03:14:19.626Z,1011.22
2017-09-19T03:15:19.594Z,1011.22
2017-09-19T03:16:19.600Z,1011.22
2017-09-19T03:17:19.533Z,1011.22
2017-09-19T03:18:19.532Z,1011.20
2017-09-19T03:19:19.473Z,1011.21
2017-09-19T03:20:19.513Z,1011.21
2017-09-19T03:21:19.370Z,1011.21
2017-09-19T03:22:19.337Z,1011.20
2017-09-19T03:23:19.294Z,1011.21
2017-09-19T03:24:19.943Z,1011.18
2017-09-19T03:25:19.219Z,1011.19
2017-09-19T03:26:19.185Z,1011.17
2017-09-19T03:27:19.150Z,1011.18
2017-09-19T03:28:19.105Z,1011.19
2017-09-19T03:29:19.069Z,1011.18
2017-09-19T03:30:19.029Z,1011.18
2017-09-19T03:31:18.992Z,1011.15
2017-09-19T03:32:18.956Z,1011.14
2017-09-19T03:33:18.918Z,1011.14
2017-09-19T03:34:18.885Z,1011.15
2017-09-19T03:35:18.844Z,1011.13
2017-09-19T03:36:18.807Z,1011.10
2017-09-19T03:37:18.799Z,1011.08
2017-09-19T03:38:18.737Z,1011.08
2017-09-19T03:39:18.697Z,1011.08
2017-09-19T03:40:18.658Z,1011.09
2017-09-19T03:41:18.622Z,1011.10
2017-09-19T03:42:18.585Z,1011.09
2017-09-19T03:43:18.547Z,1011.08
2017-09-19T03:44:18.512Z,1011.11
2017-09-19T03:45:18.476Z,1011.11
2017-09-19T03:46:18.461Z,1011.11
2017-09-19T03:47:18.428Z,1011.11
2017-09-19T03:48:20.324Z,1011.08
2017-09-19T03:49:18.327Z,1011.13
2017-09-19T03:50:18.284Z,1011.07
2017-09-19T03:51:18.247Z,1011.11
2017-09-19T03:52:18.209Z,1011.14
2017-09-19T03:53:18.177Z,1011.13
2017-09-19T03:54:18.142Z,1011.16
2017-09-19T03:55:18.095Z,1011.19
2017-09-19T03:56:18.071Z,1011.19
2017-09-19T03:57:18.052Z,1011.15
2017-09-19T03:58:18.005Z,1011.18
2017-09-19T03:59:17.948Z,1011.20
2017-09-19T04:00:17.909Z,1011.18
2017-09-19T04:01:17.871Z,1011.23
2017-09-19T04:02:17.835Z,1011.22
2017-09-19T04:03:17.802Z,1011.24
2017-09-19T04:04:17.760Z,1011.23
2017-09-19T04:05:17.742Z,1011.27
2017-09-19T04:06:17.683Z,1011.26
2017-09-19T04:07:17.647Z,1011.27
2017-09-19T04:08:17.612Z,1011.26
2017-09-19T04:09:17.582Z,1011.26
2017-09-19T04:10:17.535Z,1011.24
2017-09-19T04:11:17.625Z,1011.26
2017-09-19T04:12:17.462Z,1011.23
2017-09-19T04:13:17.425Z,1011.24
2017-09-19T04:14:17.390Z,1011.26
2017-09-19T04:15:17.347Z,1011.26
2017-09-19T04:16:17.311Z,1011.26
2017-09-19T04:17:17.278Z,1011.28
2017-09-19T04:18:17.244Z,1011.26
2017-09-19T04:19:17.199Z,1011.29
2017-09-19T04:20:17.161Z,1011.31
2017-09-19T04:21:17.124Z,1011.29
2017-09-19T04:22:17.097Z,1011.30
2017-09-19T04:23:17.047Z,1011.30
2017-09-19T04:24:17.017Z,1011.31
2017-09-19T04:25:16.974Z,1011.33
2017-09-19T04:26:16.938Z,1011.36
2017-09-19T04:27:16.902Z,1011.36
2017-09-19T04:28:16.875Z,1011.35
2017-09-19T04:29:16.824Z,1011.40
2017-09-19T04:30:16.786Z,1011.39
2017-09-19T04:31:16.755Z,1011.38
2017-09-19T04:32:16.711Z,1011.36
2017-09-19T04:33:16.674Z,1011.40
2017-09-19T04:34:16.636Z,1011.38
2017-09-19T04:35:16.604Z,1011.40
2017-09-19T04:36:16.565Z,1011.40
2017-09-19T04:37:16.525Z,1011.40
2017-09-19T04:38:16.491Z,1011.39
2017-09-19T04:39:16.449Z,1011.41
2017-09-19T04:40:16.417Z,1011.40
2017-09-19T04:41:16.376Z,1011.41
2017-09-19T04:42:16.340Z,1011.41
2017-09-19T04:43:16.301Z,1011.43
2017-09-19T04:44:16.263Z,1011.43
2017-09-19T04:45:16.237Z,1011.45
2017-09-19T04:46:16.191Z,1011.43
2017-09-19T04:47:16.152Z,1011.41
2017-09-19T04:48:16.110Z,1011.42
2017-09-19T04:49:16.078Z,1011.42
2017-09-19T04:50:16.037Z,1011.42
2017-09-19T04:51:16.000Z,1011.43
2017-09-19T04:52:15.969Z,1011.45
2017-09-19T04:53:15.931Z,1011.49
2017-09-19T04:54:15.889Z,1011.46
2017-09-19T04:55:15.851Z,1011.48
2017-09-19T04:56:15.817Z,1011.51
2017-09-19T04:57:15.774Z,1011.54
2017-09-19T04:58:15.740Z,1011.55
2017-09-19T04:59:15.712Z,1011.55
2017-09-19T05:00:15.662Z,1011.58
2017-09-19T05:01:15.626Z,1011.62
2017-09-19T05:02:15.603Z,1011.60
2017-09-19T05:03:15.552Z,1011.57
2017-09-19T05:04:15.521Z,1011.62
2017-09-19T05:05:15.475Z,1011.61
2017-09-19T05:06:15.456Z,1011.63
2017-09-19T05:07:15.405Z,1011.64
2017-09-19T05:08:15.363Z,1011.67
2017-09-19T05:09:15.329Z,1011.70
2017-09-19T05:10:15.289Z,1011.76
2017-09-19T05:11:15.252Z,1011.82
2017-09-19T05:12:15.216Z,1011.86
2017-09-19T05:13:15.180Z,1011.89
2017-09-19T05:14:15.147Z,1011.96
2017-09-19T05:15:15.104Z,1011.96
2017-09-19T05:16:15.076Z,1012.02
2017-09-19T05:17:15.034Z,1012.07
2017-09-19T05:18:14.994Z,1012.09
2017-09-19T05:19:14.965Z,1012.13
2017-09-19T05:20:14.931Z,1012.16
2017-09-19T05:21:14.904Z,1012.21
2017-09-19T05:22:14.860Z,1012.19
2017-09-19T05:23:14.821Z,1012.21
2017-09-19T05:24:14.800Z,1012.23
2017-09-19T05:25:14.778Z,1012.24
2017-09-19T05:26:14.706Z,1012.21
2017-09-19T05:27:14.670Z,1012.20
2017-09-19T05:28:14.652Z,1012.20
2017-09-19T05:29:14.605Z,1012.14
2017-09-19T05:30:14.587Z,1012.15
2017-09-19T05:31:14.553Z,1012.19
2017-09-19T05:32:14.519Z,1012.15
2017-09-19T05:33:14.463Z,1012.13
2017-09-19T05:34:14.441Z,1012.13
2017-09-19T05:35:14.456Z,1012.13
2017-09-19T05:36:14.414Z,1012.12
2017-09-19T05:37:14.329Z,1012.17
2017-09-19T05:38:14.291Z,1012.19
2017-09-19T05:39:14.253Z,1012.15
2017-09-19T05:40:14.230Z,1012.17
2017-09-19T05:41:14.189Z,1012.23
2017-09-19T05:42:14.169Z,1012.15
2017-09-19T05:43:14.121Z,1012.16
2017-09-19T05:44:14.089Z,1012.21
2017-09-19T05:45:14.052Z,1012.19
2017-09-19T05:46:14.056Z,1012.20
2017-09-19T05:47:14.000Z,1012.22
2017-09-19T05:48:13.964Z,1012.24
2017-09-19T05:49:13.919Z,1012.24
2017-09-19T05:50:13.884Z,1012.26
2017-09-19T05:51:13.875Z,1012.24
2017-09-19T05:52:13.830Z,1012.30
2017-09-19T05:53:13.792Z,1012.34
2017-09-19T05:54:13.752Z,1012.32
2017-09-19T05:55:13.719Z,1012.36
2017-09-19T05:56:13.704Z,1012.38
2017-09-19T05:57:13.653Z,1012.31
2017-09-19T05:58:13.676Z,1012.28
2017-09-19T05:59:13.594Z,1012.26
2017-09-19T06:00:13.554Z,1012.26
2017-09-19T06:01:13.525Z,1012.22
2017-09-19T06:02:13.491Z,1012.18
2017-09-19T06:03:13.459Z,1012.10
2017-09-19T06:04:13.426Z,1012.03
2017-09-19T06:05:13.394Z,1012.00
2017-09-19T06:06:13.369Z,1012.01
2017-09-19T06:07:13.327Z,1012.00
2017-09-19T06:08:13.296Z,1011.98
2017-09-19T06:09:13.264Z,1012.02
2017-09-19T06:10:13.237Z,1012.04
2017-09-19T06:11:13.199Z,1012.02
2017-09-19T06:12:13.165Z,1012.04
2017-09-19T06:13:13.143Z,1012.06
2017-09-19T06:14:13.108Z,1012.05
2017-09-19T06:15:13.074Z,1012.09
2017-09-19T06:16:13.060Z,1012.16
2017-09-19T06:17:13.016Z,1012.20
2017-09-19T06:18:12.983Z,1012.19
2017-09-19T06:19:12.951Z,1012.18
2017-09-19T06:20:12.926Z,1012.25
2017-09-19T06:21:12.888Z,1012.25
2017-09-19T06:22:12.858Z,1012.23
2017-09-19T06:23:12.834Z,1012.27
2017-09-19T06:24:12.795Z,1012.29
2017-09-19T06:25:12.775Z,1012.28
2017-09-19T06:26:12.733Z,1012.31
2017-09-19T06:27:12.726Z,1012.33
2017-09-19T06:28:12.677Z,1012.33
2017-09-19T06:29:12.642Z,1012.35
2017-09-19T06:30:12.613Z,1012.38
2017-09-19T06:31:12.583Z,1012.32
2017-09-19T06:32:12.556Z,1012.32
2017-09-19T06:33:12.523Z,1012.33
2017-09-19T06:34:12.489Z,1012.31
2017-09-19T06:35:12.464Z,1012.34
2017-09-19T06:36:12.434Z,1012.36
2017-09-19T06:37:12.401Z,1012.36
2017-09-19T06:38:12.369Z,1012.40
2017-09-19T06:39:12.353Z,1012.38
2017-09-19T06:40:12.314Z,1012.40
2017-09-19T06:41:12.280Z,1012.44
2017-09-19T06:42:12.248Z,1012.44
2017-09-19T06:43:12.222Z,1012.46
2017-09-19T06:44:12.189Z,1012.46
2017-09-19T06:45:12.161Z,1012.47
2017-09-19T06:46:12.171Z,1012.47
2017-09-19T06:47:12.097Z,1012.45
2017-09-19T06:48:12.072Z,1012.46
2017-09-19T06:49:12.043Z,1012.50
2017-09-19T06:50:12.010Z,1012.50
2017-09-19T06:51:11.988Z,1012.47
2017-09-19T06:52:11.950Z,1012.45
2017-09-19T06:53:11.924Z,1012.42
2017-09-19T06:54:11.902Z,1012.39
2017-09-19T06:55:11.871Z,1012.38
2017-09-19T06:56:11.839Z,1012.37
2017-09-19T06:57:11.806Z,1012.34
2017-09-19T06:58:11.780Z,1012.36
2017-09-19T06:59:11.747Z,1012.32
2017-09-19T07:00:11.717Z,1012.32
2017-09-19T07:01:11.703Z,1012.28
2017-09-19T07:02:11.659Z,1012.25
2017-09-19T07:03:11.644Z,1012.27
2017-09-19T07:04:11.602Z,1012.26
2017-09-19T07:05:11.568Z,1012.24
2017-09-19T07:06:11.537Z,1012.29
2017-09-19T07:07:11.505Z,1012.29
2017-09-19T07:08:11.481Z,1012.29
2017-09-19T07:09:11.445Z,1012.38
2017-09-19T07:10:11.414Z,1012.37
2017-09-19T07:11:11.392Z,1012.34
2017-09-19T07:12:11.354Z,1012.38
2017-09-19T07:13:11.322Z,1012.40
2017-09-19T07:14:11.289Z,1012.37
2017-09-19T07:15:11.256Z,1012.39
2017-09-19T07:16:11.229Z,1012.38
2017-09-19T07:17:11.203Z,1012.32
2017-09-19T07:18:11.163Z,1012.35
2017-09-19T07:19:11.133Z,1012.34
2017-09-19T07:20:11.115Z,1012.39
2017-09-19T07:21:11.069Z,1012.40
2017-09-19T07:22:11.040Z,1012.41
2017-09-19T07:23:11.003Z,1012.39
2017-09-19T07:24:10.970Z,1012.40
2017-09-19T07:25:10.950Z,1012.42
2017-09-19T07:26:10.916Z,1012.40
2017-09-19T07:27:10.900Z,1012.43
2017-09-19T07:28:10.851Z,1012.44
2017-09-19T07:29:10.810Z,1012.44
2017-09-19T07:30:10.774Z,1012.44
2017-09-19T07:31:10.743Z,1012.43
2017-09-19T07:32:10.712Z,1012.46
2017-09-19T07:33:10.680Z,1012.53
2017-09-19T07:34:10.647Z,1012.47
2017-09-19T07:35:10.613Z,1012.50
2017-09-19T07:36:10.605Z,1012.49
2017-09-19T07:37:10.550Z,1012.45
2017-09-19T07:38:10.515Z,1012.43
2017-09-19T07:39:10.482Z,1012.44
2017-09-19T07:40:10.463Z,1012.50
2017-09-19T07:41:10.418Z,1012.51
2017-09-19T07:42:10.406Z,1012.53
2017-09-19T07:43:10.363Z,1012.54
2017-09-19T07:44:10.320Z,1012.54
2017-09-19T07:45:10.300Z,1012.52
2017-09-19T07:46:10.316Z,1012.50
2017-09-19T07:47:10.243Z,1012.56
2017-09-19T07:48:10.192Z,1012.57
2017-09-19T07:49:10.160Z,1012.57
2017-09-19T07:50:10.133Z,1012.55
2017-09-19T07:51:10.128Z,1012.59
2017-09-19T07:52:10.070Z,1012.60
2017-09-19T07:53:10.048Z,1012.61
2017-09-19T07:54:10.021Z,1012.61
2017-09-19T07:55:09.983Z,1012.56
2017-09-19T07:56:09.960Z,1012.61
2017-09-19T07:57:09.908Z,1012.59
2017-09-19T07:58:09.869Z,1012.60
2017-09-19T07:59:09.841Z,1012.60
2017-09-19T08:00:09.807Z,1012.60
2017-09-19T08:01:09.785Z,1012.59
2017-09-19T08:02:09.750Z,1012.59
2017-09-19T08:03:09.711Z,1012.59
2017-09-19T08:04:09.676Z,1012.56
2017-09-19T08:05:09.728Z,1012.60
2017-09-19T08:06:09.613Z,1012.60
2017-09-19T08:07:09.592Z,1012.61
2017-09-19T08:08:09.549Z,1012.65
2017-09-19T08:09:09.559Z,1012.59
2017-09-19T08:10:09.481Z,1012.58
2017-09-19T08:11:09.453Z,1012.65
2017-09-19T08:12:09.426Z,1012.70
2017-09-19T08:13:09.396Z,1012.68
2017-09-19T08:14:09.370Z,1012.70
2017-09-19T08:15:09.324Z,1012.72
2017-09-19T08:16:09.288Z,1012.66
2017-09-19T08:17:09.254Z,1012.68
2017-09-19T08:18:09.226Z,1012.68
2017-09-19T08:19:09.195Z,1012.70
2017-09-19T08:20:09.161Z,1012.69
2017-09-19T08:21:09.125Z,1012.68
2017-09-19T08:22:09.096Z,1012.72
2017-09-19T08:23:09.058Z,1012.72
2017-09-19T08:24:09.030Z,1012.68
2017-09-19T08:25:08.998Z,1012.71
2017-09-19T08:26:08.972Z,1012.72
2017-09-19T08:27:08.931Z,1012.71
2017-09-19T08:28:08.895Z,1012.74
2017-09-19T08:29:08.875Z,1012.74
2017-09-19T08:30:08.840Z,1012.73
2017-09-19T08:31:08.802Z,1012.74
2017-09-19T08:32:08.780Z,1012.73
2017-09-19T08:33:08.734Z,1012.73
2017-09-19T08:34:08.702Z,1012.76
2017-09-19T08:35:08.678Z,1012.74
2017-09-19T08:36:08.634Z,1012.73
2017-09-19T08:37:08.612Z,1012.74
2017-09-19T08:38:08.572Z,1012.71
2017-09-19T08:39:08.535Z,1012.70
2017-09-19T08:40:08.503Z,1012.74
2017-09-19T08:41:08.471Z,1012.73
2017-09-19T08:42:08.437Z,1012.77
2017-09-19T08:43:08.409Z,1012.76
2017-09-19T08:44:08.369Z,1012.76
2017-09-19T08:45:08.346Z,1012.75
2017-09-19T08:46:08.300Z,1012.75
2017-09-19T08:47:08.270Z,1012.77
2017-09-19T08:48:08.238Z,1012.79
2017-09-19T08:49:08.206Z,1012.76
2017-09-19T08:50:08.179Z,1012.77
2017-09-19T08:51:08.140Z,1012.73
2017-09-19T08:52:08.114Z,1012.74
2017-09-19T08:53:08.073Z,1012.71
2017-09-19T08:54:08.035Z,1012.70
2017-09-19T08:55:08.003Z,1012.70
2017-09-19T08:56:07.975Z,1012.70
2017-09-19T08:57:07.940Z,1012.66
2017-09-19T08:58:07.903Z,1012.65
2017-09-19T08:59:07.877Z,1012.62
2017-09-19T09:00:07.837Z,1012.63
2017-09-19T09:01:07.810Z,1012.65
2017-09-19T09:02:07.767Z,1012.62
2017-09-19T09:03:07.737Z,1012.63
2017-09-19T09:04:07.727Z,1012.64
2017-09-19T09:05:07.671Z,1012.64
2017-09-19T09:06:07.642Z,1012.62
2017-09-19T09:07:07.610Z,1012.57
2017-09-19T09:08:07.569Z,1012.59
2017-09-19T09:09:07.537Z,1012.62
2017-09-19T09:10:07.502Z,1012.54
2017-09-19T09:11:07.470Z,1012.53
2017-09-19T09:12:07.432Z,1012.50
2017-09-19T09:13:07.409Z,1012.51
2017-09-19T09:14:07.379Z,1012.49
2017-09-19T09:15:07.338Z,1012.45
2017-09-19T09:16:07.310Z,1012.47
2017-09-19T09:17:07.267Z,1012.45
2017-09-19T09:18:07.234Z,1012.46
2017-09-19T09:19:07.200Z,1012.47
2017-09-19T09:20:07.163Z,1012.48
2017-09-19T09:21:07.137Z,1012.46
2017-09-19T09:22:07.100Z,1012.44
2017-09-19T09:23:07.079Z,1012.44
2017-09-19T09:24:07.035Z,1012.43
2017-09-19T09:25:07.007Z,1012.44
2017-09-19T09:26:06.970Z,1012.43
2017-09-19T09:27:06.934Z,1012.41
2017-09-19T09:28:06.899Z,1012.45
2017-09-19T09:29:06.867Z,1012.40
2017-09-19T09:30:06.844Z,1012.38
2017-09-19T09:31:06.802Z,1012.42
2017-09-19T09:32:06.767Z,1012.43
2017-09-19T09:33:06.735Z,1012.43
2017-09-19T09:34:06.702Z,1012.45
2017-09-19T09:35:06.670Z,1012.48
2017-09-19T09:36:06.642Z,1012.52
2017-09-19T09:37:06.616Z,1012.46
2017-09-19T09:38:06.569Z,1012.49
2017-09-19T09:39:06.536Z,1012.45
2017-09-19T09:40:06.501Z,1012.35
2017-09-19T09:41:06.474Z,1012.49
2017-09-19T09:42:06.441Z,1012.53
2017-09-19T09:43:06.417Z,1012.52
2017-09-19T09:44:06.368Z,1012.33
2017-09-19T09:45:06.332Z,1012.52
2017-09-19T09:46:06.310Z,1012.51
2017-09-19T09:47:06.268Z,1012.53
2017-09-19T09:48:06.236Z,1012.36
2017-09-19T09:49:06.204Z,1012.38
2017-09-19T09:50:06.172Z,1012.55
2017-09-19T09:51:06.137Z,1012.39
2017-09-19T09:52:06.108Z,1012.56
2017-09-19T09:53:06.076Z,1012.55
2017-09-19T09:54:06.036Z,1012.46
2017-09-19T09:55:06.003Z,1012.48
2017-09-19T09:56:05.969Z,1012.48
2017-09-19T09:57:05.937Z,1012.55
2017-09-19T09:58:05.905Z,1012.52
2017-09-19T09:59:05.869Z,1012.38
2017-09-19T10:00:05.836Z,1012.32
2017-09-19T10:01:05.807Z,1012.32
2017-09-19T10:02:05.770Z,1012.36
2017-09-19T10:03:05.739Z,1012.37
2017-09-19T10:04:05.714Z,1012.34
2017-09-19T10:05:05.674Z,1012.31
2017-09-19T10:06:05.640Z,1012.36
2017-09-19T10:07:05.610Z,1012.48
2017-09-19T10:08:05.574Z,1012.33
2017-09-19T10:09:05.544Z,1012.33
2017-09-19T10:10:05.511Z,1012.27
2017-09-19T10:11:05.477Z,1012.31
2017-09-19T10:12:05.452Z,1012.29
2017-09-19T10:13:05.416Z,1012.45
2017-09-19T10:14:05.382Z,1012.48
2017-09-19T10:15:05.389Z,1012.46
2017-09-19T10:16:05.317Z,1012.49
2017-09-19T10:17:05.279Z,1012.52
2017-09-19T10:18:05.259Z,1012.51
2017-09-19T10:19:05.234Z,1012.51
2017-09-19T10:20:05.189Z,1012.50
2017-09-19T10:21:05.192Z,1012.49
2017-09-19T10:22:05.123Z,1012.48
2017-09-19T10:23:05.083Z,1012.52
2017-09-19T10:24:05.058Z,1012.47
2017-09-19T10:25:05.018Z,1012.53
2017-09-19T10:26:04.981Z,1012.47
2017-09-19T10:27:04.953Z,1012.51
2017-09-19T10:28:04.923Z,1012.51
2017-09-19T10:29:04.912Z,1012.48
2017-09-19T10:30:04.857Z,1012.46
2017-09-19T10:31:04.831Z,1012.45
2017-09-19T10:32:04.806Z,1012.41
2017-09-19T10:33:04.791Z,1012.41
2017-09-19T10:34:04.718Z,1012.38
2017-09-19T10:35:04.695Z,1012.34
2017-09-19T10:36:04.667Z,1012.40
2017-09-19T10:37:04.633Z,1012.36
2017-09-19T10:38:04.590Z,1012.40
2017-09-19T10:39:04.565Z,1012.41
2017-09-19T10:40:04.530Z,1012.35
2017-09-19T10:41:04.505Z,1012.37
2017-09-19T10:42:04.461Z,1012.29
2017-09-19T10:43:04.430Z,1012.30
2017-09-19T10:44:04.401Z,1012.31
2017-09-19T10:45:04.383Z,1012.31
2017-09-19T10:46:04.338Z,1012.33
2017-09-19T10:47:04.298Z,1012.32
2017-09-19T10:48:04.270Z,1012.30
2017-09-19T10:49:04.323Z,1012.36
2017-09-19T10:50:04.205Z,1012.33
2017-09-19T10:51:04.162Z,1012.27
2017-09-19T10:52:04.132Z,1012.30
2017-09-19T10:53:04.106Z,1012.35
2017-09-19T10:54:04.066Z,1012.33
2017-09-19T10:55:04.042Z,1012.31
2017-09-19T10:56:04.004Z,1012.30
2017-09-19T10:57:03.978Z,1012.35
2017-09-19T10:58:03.947Z,1012.32
2017-09-19T10:59:03.902Z,1012.32
2017-09-19T11:00:03.870Z,1012.35
2017-09-19T11:01:03.844Z,1012.33
2017-09-19T11:02:03.805Z,1012.38
2017-09-19T11:03:03.771Z,1012.39
2017-09-19T11:04:03.743Z,1012.39
2017-09-19T11:05:03.707Z,1012.39
2017-09-19T11:06:03.672Z,1012.42
2017-09-19T11:07:03.642Z,1012.42
2017-09-19T11:08:03.610Z,1012.43
2017-09-19T11:09:03.579Z,1012.43
2017-09-19T11:10:03.545Z,1012.43
2017-09-19T11:11:03.511Z,1012.40
2017-09-19T11:12:03.493Z,1012.39
2017-09-19T11:13:03.450Z,1012.40
2017-09-19T11:14:03.415Z,1012.40
2017-09-19T11:15:03.384Z,1012.38
2017-09-19T11:16:03.362Z,1012.39
2017-09-19T11:17:03.321Z,1012.38
2017-09-19T11:18:03.296Z,1012.39
2017-09-19T11:19:03.267Z,1012.46
2017-09-19T11:20:03.226Z,1012.43
2017-09-19T11:21:03.195Z,1012.46
2017-09-19T11:22:03.168Z,1012.42
2017-09-19T11:23:03.128Z,1012.42
2017-09-19T11:24:03.099Z,1012.42
2017-09-19T11:25:03.070Z,1012.46
2017-09-19T11:26:03.033Z,1012.47
2017-09-19T11:27:03.012Z,1012.49
2017-09-19T11:28:02.973Z,1012.49
2017-09-19T11:29:02.948Z,1012.53
2017-09-19T11:30:02.908Z,1012.52
2017-09-19T11:31:02.878Z,1012.51
2017-09-19T11:32:02.846Z,1012.49
2017-09-19T11:33:02.815Z,1012.44
2017-09-19T11:34:02.785Z,1012.45
2017-09-19T11:35:02.752Z,1012.43
2017-09-19T11:36:02.719Z,1012.45
2017-09-19T11:37:02.693Z,1012.47
2017-09-19T11:38:02.661Z,1012.49
2017-09-19T11:39:02.627Z,1012.50
2017-09-19T11:40:02.596Z,1012.49
2017-09-19T11:41:02.565Z,1012.46
2017-09-19T11:42:02.536Z,1012.48
2017-09-19T11:43:02.506Z,1012.49
2017-09-19T11:44:02.473Z,1012.47
2017-09-19T11:45:02.444Z,1012.48
2017-09-19T11:46:02.429Z,1012.51
2017-09-19T11:47:02.383Z,1012.50
2017-09-19T11:48:02.349Z,1012.48
2017-09-19T11:49:02.327Z,1012.50
2017-09-19T11:50:02.288Z,1012.48
2017-09-19T11:51:02.261Z,1012.47
2017-09-19T11:52:02.235Z,1012.32
2017-09-19T11:53:02.200Z,1012.41
2017-09-19T11:54:02.167Z,1012.32
2017-09-19T11:55:02.139Z,1012.30
2017-09-19T11:56:02.108Z,1012.44
2017-09-19T11:57:02.075Z,1012.38
2017-09-19T11:58:02.045Z,1012.26
2017-09-19T11:59:02.020Z,1012.29
2017-09-19T12:00:01.989Z,1012.47
2017-09-19T12:01:01.952Z,1012.50
2017-09-19T12:02:01.924Z,1012.48
2017-09-19T12:03:01.900Z,1012.49
2017-09-19T12:04:01.863Z,1012.31
2017-09-19T12:05:01.876Z,1012.30